Time;durP1;ratioP1;P1;durP2;ratioP2;P2;SDS_P1;SDS_P2;PMS_P1;PMS_P2;Temp;Humidity;BMP_temperature;BMP_pressure;BME280_temperature;BME280_humidity;BME280_pressure;Samples;Min_cycle;Max_cycle;Signal;HPM_P1;HPM_P2
2023/09/01 00:01:03;;;;;;;7.43;2.13;;;;;;;-149.70;100.00;76845.34;4975387;28;20047;-64
2023/09/01 00:03:29;;;;;;;4.32;1.92;;;;;;;-149.70;100.00;76849.41;4956144;28;20047;-63
2023/09/01 00:05:58;;;;;;;4.03;2.00;;;;;;;-149.70;100.00;76843.31;4954938;28;20074;-63
2023/09/01 00:08:25;;;;;;;5.30;2.15;;;;;;;-149.70;100.00;76833.13;4955704;28;20047;-63
2023/09/01 00:10:52;;;;;;;4.28;2.20;;;;;;;-149.70;100.00;76837.19;4955865;28;20048;-63
2023/09/01 00:13:18;;;;;;;5.18;1.92;;;;;;;-149.70;100.00;76841.25;4956001;28;20043;-64
2023/09/01 00:15:45;;;;;;;3.67;1.80;;;;;;;-149.70;100.00;76831.09;4955114;28;20428;-64
2023/09/01 00:18:11;;;;;;;5.60;1.77;;;;;;;-149.70;100.00;76869.75;4956014;28;20621;-63
2023/09/01 00:20:38;;;;;;;11.02;2.08;;;;;;;-149.70;100.00;76877.88;4955748;28;20073;-63
2023/09/01 00:23:05;;;;;;;6.82;2.10;;;;;;;-149.70;100.00;76869.75;4954770;28;20047;-63
2023/09/01 00:25:31;;;;;;;3.72;1.85;;;;;;;-149.70;100.00;76867.69;4954283;28;20055;-64
2023/09/01 00:27:58;;;;;;;6.20;1.92;;;;;;;-149.70;100.00;76869.75;4938303;28;20053;-64
2023/09/01 00:30:28;;;;;;;3.20;1.77;;;;;;;-149.70;100.00;76873.81;4954612;28;20051;-64
2023/09/01 00:32:55;;;;;;;5.07;1.92;;;;;;;-149.70;100.00;76881.94;4954507;28;20039;-64
2023/09/01 00:35:21;;;;;;;4.50;2.00;;;;;;;-149.70;100.00;76881.94;4955267;28;20062;-62
2023/09/01 00:37:50;;;;;;;3.55;2.00;;;;;;;-149.70;100.00;76902.28;4955577;28;20132;-62
2023/09/01 00:40:17;;;;;;;4.32;1.63;;;;;;;-149.70;100.00;76888.03;4955160;28;20051;-63
2023/09/01 00:42:44;;;;;;;3.88;2.10;;;;;;;-149.70;100.00;76898.22;4955857;28;20508;-63
2023/09/01 00:45:11;;;;;;;4.13;1.75;;;;;;;-149.70;100.00;76890.06;4955669;28;20051;-63
2023/09/01 00:47:38;;;;;;;4.63;2.08;;;;;;;-149.70;100.00;76902.28;4955461;28;20047;-63
2023/09/01 00:50:07;;;;;;;3.58;1.95;;;;;;;-149.70;100.00;76894.13;4954815;28;20070;-63
2023/09/01 00:52:35;;;;;;;5.78;2.20;;;;;;;-149.70;100.00;76892.09;4954999;28;20491;-63
2023/09/01 00:55:02;;;;;;;6.22;2.10;;;;;;;-149.70;100.00;76881.94;4937849;28;20047;-63
2023/09/01 00:57:30;;;;;;;6.60;2.10;;;;;;;-149.70;100.00;76886.00;4954924;28;20055;-63
2023/09/01 00:59:57;;;;;;;6.22;2.40;;;;;;;-149.70;100.00;76879.91;4927760;28;20096;-64
2023/09/01 01:02:25;;;;;;;6.88;2.42;;;;;;;-149.70;100.00;76890.06;4964967;28;20129;-63
2023/09/01 01:04:54;;;;;;;6.88;2.13;;;;;;;-149.70;100.00;76881.94;4971538;28;20392;-63
2023/09/01 01:07:31;;;;;;;3.78;1.90;;;;;;;-149.70;100.00;76881.94;4970418;28;20047;-63
2023/09/01 01:10:11;;;;;;;3.78;1.80;;;;;;;-149.70;100.00;76898.22;4974110;28;20041;-62
2023/09/01 01:13:04;;;;;;;3.80;1.95;;;;;;;-149.70;100.00;76892.09;4973461;28;20055;-63
2023/09/01 01:15:32;;;;;;;3.45;1.77;;;;;;;-149.70;100.00;76906.34;4973529;28;20050;-63
2023/09/01 01:18:01;;;;;;;5.13;2.30;;;;;;;-149.70;100.00;76920.56;4973610;28;20126;-63
2023/09/01 01:20:42;;;;;;;4.63;2.05;;;;;;;-149.70;100.00;76924.63;4972629;28;20142;-63
2023/09/01 01:23:11;;;;;;;4.57;2.15;;;;;;;-149.70;100.00;76906.34;4972619;28;20097;-63
2023/09/01 01:25:45;;;;;;;3.17;2.13;;;;;;;-149.70;100.00;76910.41;4955503;28;20074;-63
2023/09/01 01:28:11;;;;;;;3.47;2.20;;;;;;;-149.70;100.00;76918.53;4973902;28;20051;-63
2023/09/01 01:30:39;;;;;;;4.15;1.98;;;;;;;-149.70;100.00;76918.53;4973896;28;20507;-63
2023/09/01 01:33:41;;;;;;;4.13;2.15;;;;;;;-149.70;100.00;76916.50;4974125;28;20483;-63
2023/09/01 01:36:18;;;;;;;3.85;2.17;;;;;;;-149.70;100.00;76904.31;4956288;28;20041;-62
2023/09/01 01:39:04;;;;;;;5.68;2.42;;;;;;;-149.70;100.00;76898.22;4973598;28;20098;-63
2023/09/01 01:41:43;;;;;;;6.60;2.83;;;;;;;-149.70;100.00;76894.13;4973080;28;20504;-63
2023/09/01 01:44:13;;;;;;;3.53;2.35;;;;;;;-149.70;100.00;76896.16;4973615;28;20057;-63
2023/09/01 01:46:41;;;;;;;6.65;2.88;;;;;;;-149.70;100.00;76898.22;4973420;28;20050;-63
2023/09/01 01:49:11;;;;;;;7.63;2.55;;;;;;;-149.70;100.00;76906.34;4972967;28;20054;-63
2023/09/01 01:51:37;;;;;;;4.15;2.20;;;;;;;-149.70;100.00;76906.34;4960224;28;20047;-63
2023/09/01 01:54:05;;;;;;;8.27;2.40;;;;;;;-149.70;100.00;76906.34;4953294;28;20207;-63
2023/09/01 01:56:32;;;;;;;5.53;2.83;;;;;;;-149.70;100.00;76910.41;4953682;28;20130;-63
2023/09/01 01:59:00;;;;;;;6.38;2.38;;;;;;;-149.70;100.00;76906.34;4953852;28;20039;-63
2023/09/01 02:01:26;;;;;;;6.25;2.45;;;;;;;-149.70;100.00;76912.44;4953046;28;20039;-63
2023/09/01 02:03:53;;;;;;;5.07;2.35;;;;;;;-149.70;100.00;76928.72;4953312;28;20054;-63
2023/09/01 02:06:19;;;;;;;7.03;2.72;;;;;;;-149.70;100.00;76938.88;4954430;28;20070;-63
2023/09/01 02:08:46;;;;;;;4.05;2.38;;;;;;;-149.70;100.00;76916.50;4953818;28;20043;-63
2023/09/01 02:11:12;;;;;;;4.22;2.17;;;;;;;-149.70;100.00;76930.75;4952565;28;20039;-63
2023/09/01 02:13:39;;;;;;;4.53;2.17;;;;;;;-149.70;100.00;76930.75;4953329;28;20564;-64
2023/09/01 02:16:06;;;;;;;6.03;2.40;;;;;;;-149.70;100.00;76932.78;4953621;28;20047;-63
2023/09/01 02:18:33;;;;;;;5.85;2.60;;;;;;;-149.70;100.00;76947.00;4953580;28;20456;-64
2023/09/01 02:21:00;;;;;;;6.13;2.65;;;;;;;-149.70;100.00;76932.78;4953366;28;20051;-63
2023/09/01 02:23:27;;;;;;;7.90;2.45;;;;;;;-149.70;100.00;76940.91;4952144;28;20047;-64
2023/09/01 02:25:54;;;;;;;6.70;2.63;;;;;;;-149.70;100.00;76934.81;4953645;28;20484;-64
2023/09/01 02:28:20;;;;;;;6.85;2.88;;;;;;;-149.70;100.00;76955.16;4954141;28;20535;-63
2023/09/01 02:30:47;;;;;;;8.93;3.05;;;;;;;-149.70;100.00;76951.06;4954044;28;20055;-63
2023/09/01 02:33:14;;;;;;;3.80;2.35;;;;;;;-149.70;100.00;76940.91;4954877;28;20502;-63
2023/09/01 02:35:44;;;;;;;6.63;2.70;;;;;;;-149.70;100.00;76942.94;4956432;28;20047;-64
2023/09/01 02:38:11;;;;;;;5.45;2.88;;;;;;;-149.70;100.00;76955.16;4957677;28;20051;-64
2023/09/01 02:40:39;;;;;;;6.88;2.95;;;;;;;-149.70;100.00;76973.44;4956938;28;20134;-63
2023/09/01 02:43:06;;;;;;;4.35;2.83;;;;;;;-149.70;100.00;76977.50;4957708;28;20055;-63
2023/09/01 02:45:33;;;;;;;5.00;2.65;;;;;;;-149.70;100.00;76979.56;4957094;28;20055;-63
2023/09/01 02:47:59;;;;;;;7.75;3.30;;;;;;;-149.70;100.00;76983.63;4957294;28;20488;-63
2023/09/01 02:50:26;;;;;;;5.40;3.25;;;;;;;-149.70;100.00;76979.56;4965120;28;20050;-63
2023/09/01 02:52:52;;;;;;;8.85;2.88;;;;;;;-149.70;100.00;76973.44;4976109;28;20114;-64
2023/09/01 02:55:19;;;;;;;5.63;3.17;;;;;;;-149.70;100.00;76975.47;4976874;28;20047;-63
2023/09/01 02:57:45;;;;;;;6.13;3.20;;;;;;;-149.70;100.00;76979.56;4975302;28;20077;-63
2023/09/01 03:00:18;;;;;;;3.15;2.60;;;;;;;-149.70;100.00;76979.56;4975690;28;20077;-63
2023/09/01 03:02:45;;;;;;;7.53;3.42;;;;;;;-149.70;100.00;76977.50;4975662;28;20046;-63
2023/09/01 03:05:12;;;;;;;8.98;3.17;;;;;;;-149.70;100.00;76985.66;4977000;28;20083;-62
2023/09/01 03:07:40;;;;;;;7.47;3.00;;;;;;;-149.70;100.00;76991.75;4975930;28;20059;-63
2023/09/01 03:10:07;;;;;;;11.88;3.53;;;;;;;-149.70;100.00;76987.69;4975879;28;20070;-63
2023/09/01 03:12:37;;;;;;;6.85;3.53;;;;;;;-149.70;100.00;76985.66;4975927;28;20499;-63
2023/09/01 03:15:06;;;;;;;9.90;3.63;;;;;;;-149.70;100.00;76979.56;4974684;28;20129;-63
2023/09/01 03:17:33;;;;;;;9.57;4.32;;;;;;;-149.70;100.00;76985.66;4975906;28;20051;-63
2023/09/01 03:19:59;;;;;;;6.85;3.88;;;;;;;-149.70;100.00;76997.84;4975022;28;20491;-63
2023/09/01 03:22:28;;;;;;;6.32;3.42;;;;;;;-149.70;100.00;77012.09;4974788;28;20050;-63
2023/09/01 03:24:54;;;;;;;6.40;3.92;;;;;;;-149.70;100.00;77018.19;4958203;28;20669;-63
2023/09/01 03:27:21;;;;;;;6.18;3.83;;;;;;;-149.70;100.00;77010.06;4976250;28;20471;-63
2023/09/01 03:29:53;;;;;;;5.53;3.88;;;;;;;-149.70;100.00;77010.06;4975923;28;20078;-63
2023/09/01 03:32:19;;;;;;;9.32;3.80;;;;;;;-149.70;100.00;77024.28;4974903;28;20042;-63
2023/09/01 03:34:46;;;;;;;14.02;4.50;;;;;;;-149.70;100.00;77014.13;4975584;28;20070;-63
2023/09/01 03:37:13;;;;;;;9.35;4.30;;;;;;;-149.70;100.00;77016.16;4974600;28;20047;-63
2023/09/01 03:39:40;;;;;;;8.73;4.10;;;;;;;-149.70;100.00;77024.28;4974672;28;20046;-63
2023/09/01 03:42:06;;;;;;;7.55;4.07;;;;;;;-149.70;100.00;77018.19;4974962;28;20114;-63
2023/09/01 03:44:33;;;;;;;8.77;4.65;;;;;;;-149.70;100.00;77020.22;4974118;28;20570;-63
2023/09/01 03:46:59;;;;;;;10.10;4.93;;;;;;;-149.70;100.00;77040.56;4975549;28;20097;-63
2023/09/01 03:49:26;;;;;;;5.40;4.30;;;;;;;-149.70;100.00;77042.59;4974219;28;20500;-63
2023/09/01 03:51:53;;;;;;;5.10;4.28;;;;;;;-149.70;100.00;77034.47;4974930;28;20490;-63
2023/09/01 03:54:19;;;;;;;5.53;4.10;;;;;;;-149.70;100.00;77056.81;4959094;28;20050;-63
2023/09/01 03:56:46;;;;;;;9.98;4.93;;;;;;;-149.70;100.00;77060.88;4974306;28;20066;-63
2023/09/01 03:59:13;;;;;;;11.98;5.00;;;;;;;-149.70;100.00;77077.16;4956793;28;20051;-63
2023/09/01 04:01:39;;;;;;;9.60;5.07;;;;;;;-149.70;100.00;77077.16;4973920;28;20491;-63
2023/09/01 04:04:06;;;;;;;8.40;4.50;;;;;;;-149.70;100.00;77085.28;4974483;28;20074;-63
2023/09/01 04:06:33;;;;;;;6.90;4.55;;;;;;;-149.70;100.00;77087.31;4974555;28;20047;-63
2023/09/01 04:09:00;;;;;;;8.35;5.10;;;;;;;-149.70;100.00;77073.09;4974605;28;20495;-63
2023/09/01 04:11:26;;;;;;;10.23;5.18;;;;;;;-149.70;100.00;77097.50;4974426;28;20102;-63
2023/09/01 04:13:55;;;;;;;7.95;4.57;;;;;;;-149.70;100.00;77085.28;4974461;28;20078;-63
2023/09/01 04:16:22;;;;;;;8.50;4.53;;;;;;;-149.70;100.00;77085.28;4974730;28;20051;-64
2023/09/01 04:18:49;;;;;;;9.73;4.88;;;;;;;-149.70;100.00;77064.97;4973835;28;20101;-63
2023/09/01 04:21:16;;;;;;;10.00;4.88;;;;;;;-149.70;100.00;77069.03;4957016;28;20047;-63
2023/09/01 04:23:43;;;;;;;7.00;5.00;;;;;;;-149.70;100.00;77067.00;4974564;28;20047;-63
2023/09/01 04:26:10;;;;;;;8.50;5.15;;;;;;;-149.70;100.00;77060.88;4974282;28;20047;-63
2023/09/01 04:28:36;;;;;;;8.45;5.30;;;;;;;-149.70;100.00;77064.97;4973565;28;20077;-63
2023/09/01 04:31:12;;;;;;;6.43;4.53;;;;;;;-149.70;100.00;77064.97;4973403;28;20046;-63
2023/09/01 04:33:40;;;;;;;6.93;4.80;;;;;;;-149.70;100.00;77064.97;4974242;28;20496;-63
2023/09/01 04:36:07;;;;;;;7.88;4.55;;;;;;;-149.70;100.00;77071.06;4973876;28;20534;-63
2023/09/01 04:38:33;;;;;;;19.13;8.90;;;;;;;-149.70;100.00;77062.94;4974148;28;20082;-63
2023/09/01 04:41:00;;;;;;;22.48;11.48;;;;;;;-149.70;100.00;77062.94;4973641;28;20051;-63
2023/09/01 04:43:28;;;;;;;12.52;6.53;;;;;;;-149.70;100.00;77075.13;4973532;28;20122;-64
2023/09/01 04:45:55;;;;;;;8.15;4.85;;;;;;;-149.70;100.00;77064.97;4973695;28;20050;-64
2023/09/01 04:48:22;;;;;;;10.15;4.95;;;;;;;-149.70;100.00;77081.22;4974276;28;20101;-63
2023/09/01 04:50:49;;;;;;;11.57;5.07;;;;;;;-149.70;100.00;77056.81;4973659;28;20043;-64
2023/09/01 04:53:16;;;;;;;13.82;6.07;;;;;;;-149.70;100.00;77073.09;4974063;28;20060;-63
2023/09/01 04:55:42;;;;;;;9.25;5.22;;;;;;;-149.70;100.00;77062.94;4973063;28;20079;-63
2023/09/01 04:58:13;;;;;;;9.20;5.45;;;;;;;-149.70;100.00;77040.56;4973636;28;20415;-63
2023/09/01 05:00:41;;;;;;;6.60;4.70;;;;;;;-149.70;100.00;77054.78;4973666;28;20561;-63
2023/09/01 05:03:08;;;;;;;9.75;4.85;;;;;;;-149.70;100.00;77054.78;4956605;28;20047;-63
2023/09/01 05:05:34;;;;;;;9.50;4.95;;;;;;;-149.70;100.00;77050.72;4972908;28;20069;-63
2023/09/01 05:08:02;;;;;;;8.45;4.80;;;;;;;-149.70;100.00;77050.72;4973657;28;20043;-63
2023/09/01 05:10:29;;;;;;;7.05;4.88;;;;;;;-149.70;100.00;77048.69;4973048;28;20179;-63
2023/09/01 05:12:56;;;;;;;11.88;4.93;;;;;;;-149.70;100.00;77060.88;4956453;28;20325;-63
2023/09/01 05:15:23;;;;;;;8.63;4.78;;;;;;;-149.70;100.00;77036.50;4973112;28;20125;-63
2023/09/01 05:17:50;;;;;;;10.30;4.50;;;;;;;-149.70;100.00;77044.63;4974411;28;20050;-64
2023/09/01 05:20:16;;;;;;;12.07;5.68;;;;;;;-149.70;100.00;77036.50;4973622;28;20410;-63
2023/09/01 05:22:43;;;;;;;7.60;4.93;;;;;;;-149.70;100.00;77036.50;4972932;28;20058;-63
2023/09/01 05:25:11;;;;;;;9.48;4.68;;;;;;;-149.70;100.00;77026.31;4974093;28;20057;-64
2023/09/01 05:27:37;;;;;;;8.07;4.50;;;;;;;-149.70;100.00;77022.25;4973564;28;20050;-64
2023/09/01 05:30:04;;;;;;;9.25;4.63;;;;;;;-149.70;100.00;77028.34;4974425;28;20054;-64
2023/09/01 05:32:31;;;;;;;12.02;4.85;;;;;;;-149.70;100.00;77022.25;4973321;28;20050;-64
2023/09/01 05:34:58;;;;;;;9.68;4.82;;;;;;;-149.70;100.00;77018.19;4973788;28;20047;-63
2023/09/01 05:37:24;;;;;;;8.70;4.63;;;;;;;-149.70;100.00;77020.22;4973707;28;20039;-63
2023/09/01 05:39:51;;;;;;;8.23;5.28;;;;;;;-149.70;100.00;77024.28;4973760;28;20046;-63
2023/09/01 05:42:19;;;;;;;8.25;4.15;;;;;;;-149.70;100.00;77020.22;4972966;28;20047;-64
2023/09/01 05:44:46;;;;;;;7.25;4.10;;;;;;;-149.70;100.00;77005.97;4972802;28;20050;-64
2023/09/01 05:47:13;;;;;;;9.90;4.55;;;;;;;-149.70;100.00;77003.94;4973054;28;20054;-63
2023/09/01 05:49:39;;;;;;;6.93;4.03;;;;;;;-149.70;100.00;76983.63;4972401;28;20051;-64
2023/09/01 05:52:06;;;;;;;9.48;4.53;;;;;;;-149.70;100.00;76985.66;4973225;28;20073;-62
2023/09/01 05:54:32;;;;;;;12.25;4.50;;;;;;;-149.70;100.00;76979.56;4971705;28;20055;-63
2023/09/01 05:56:59;;;;;;;10.68;4.38;;;;;;;-149.70;100.00;76963.28;4972691;28;20097;-63
2023/09/01 05:59:25;;;;;;;7.13;4.93;;;;;;;-149.70;100.00;76963.28;4972946;28;20047;-63
2023/09/01 06:01:52;;;;;;;10.35;4.45;;;;;;;-149.70;100.00;76959.22;4956246;28;20519;-63
2023/09/01 06:04:18;;;;;;;7.82;4.32;;;;;;;-149.70;100.00;76947.00;4973193;28;20051;-63
2023/09/01 06:06:45;;;;;;;8.55;4.50;;;;;;;-149.70;100.00;76930.75;4972559;28;20046;-63
2023/09/01 06:09:12;;;;;;;6.22;3.80;;;;;;;-149.70;100.00;76914.47;4973124;28;20074;-63
2023/09/01 06:11:39;;;;;;;8.73;3.47;;;;;;;-149.70;100.00;76916.50;4971834;28;20070;-64
2023/09/01 06:14:06;;;;;;;10.00;3.75;;;;;;;-149.70;100.00;76888.03;4972342;28;20047;-63
2023/09/01 06:16:32;;;;;;;8.10;3.45;;;;;;;-149.70;100.00;76888.03;4972941;28;20097;-63
2023/09/01 06:19:00;;;;;;;6.68;3.95;;;;;;;-149.70;100.00;76871.78;4972279;28;20110;-63
2023/09/01 06:21:27;;;;;;;8.82;4.00;;;;;;;-149.70;100.00;76849.41;4971663;28;20050;-63
2023/09/01 06:23:54;;;;;;;9.77;3.55;;;;;;;-149.70;100.00;76841.25;4971286;28;20106;-63
2023/09/01 06:26:21;;;;;;;6.95;3.38;;;;;;;-149.70;100.00;76829.06;4972012;28;20121;-63
2023/09/01 06:28:49;;;;;;;10.18;3.95;;;;;;;-149.70;100.00;76820.94;4972544;28;20081;-63
2023/09/01 06:31:16;;;;;;;7.13;3.67;;;;;;;-149.70;100.00;76794.50;4971548;28;20082;-62
2023/09/01 06:33:44;;;;;;;6.20;3.28;;;;;;;-149.70;100.00;76796.53;4971853;28;20055;-63
2023/09/01 06:36:12;;;;;;;7.95;3.75;;;;;;;-149.70;100.00;76790.44;4972033;28;20471;-63
2023/09/01 06:38:40;;;;;;;11.55;3.50;;;;;;;-149.70;100.00;76753.81;4972221;28;20050;-63
2023/09/01 06:41:08;;;;;;;10.73;3.85;;;;;;;-149.70;100.00;76733.50;4972424;28;20055;-63
2023/09/01 06:43:35;;;;;;;13.15;4.05;;;;;;;-149.70;100.00;76725.34;4970631;28;20471;-63
2023/09/01 06:46:02;;;;;;;6.55;3.67;;;;;;;-149.70;100.00;76703.00;4970985;28;20384;-63
2023/09/01 06:48:30;;;;;;;10.45;3.92;;;;;;;-149.70;100.00;76654.19;4971473;28;20051;-63
2023/09/01 06:51:02;;;;;;;9.57;3.53;;;;;;;-149.70;100.00;76617.59;4970999;28;20503;-63
2023/09/01 06:53:29;;;;;;;8.32;4.35;;;;;;;-149.70;100.00;76601.31;4971706;28;20059;-63
2023/09/01 06:55:55;;;;;;;9.30;4.80;;;;;;;5.11;100.00;99720.88;4970858;28;20487;-63
2023/09/01 06:58:22;;;;;;;10.10;4.22;;;;;;;7.12;100.00;100008.06;4971611;28;20117;-62
2023/09/01 07:00:51;;;;;;;8.00;3.17;;;;;;;8.64;100.00;100212.28;4971675;28;20559;-62
2023/09/01 07:03:19;;;;;;;8.63;3.70;;;;;;;10.28;100.00;100393.03;4971347;28;20047;-62
2023/09/01 07:05:54;;;;;;;6.47;2.85;;;;;;;12.08;100.00;100583.50;4971559;28;20129;-62
2023/09/01 07:08:21;;;;;;;6.38;2.90;;;;;;;12.65;100.00;100626.28;4954416;28;20042;-62
2023/09/01 07:10:47;;;;;;;8.85;3.22;;;;;;;13.02;100.00;100644.44;4971765;28;20050;-62
2023/09/01 07:13:14;;;;;;;12.55;3.08;;;;;;;13.22;100.00;100644.81;4971354;28;20047;-63
2023/09/01 07:15:46;;;;;;;10.63;3.60;;;;;;;13.62;100.00;100655.44;4971485;28;20183;-63
2023/09/01 07:18:12;;;;;;;8.82;2.90;;;;;;;14.08;100.00;100655.34;4971063;28;20059;-66
2023/09/01 07:20:46;;;;;;;6.75;3.35;;;;;;;14.58;100.00;100659.19;4973121;28;20050;-68
2023/09/01 07:23:13;;;;;;;5.95;2.65;;;;;;;14.87;100.00;100666.41;4974199;28;20055;-68
2023/09/01 07:25:40;;;;;;;7.47;3.00;;;;;;;15.24;100.00;100668.06;4974317;28;20094;-68
2023/09/01 07:28:08;;;;;;;5.97;3.05;;;;;;;15.56;100.00;100679.41;4974914;28;20046;-66
2023/09/01 07:30:34;;;;;;;8.93;3.05;;;;;;;15.76;100.00;100680.44;4957430;28;20114;-67
2023/09/01 07:33:01;;;;;;;7.82;3.00;;;;;;;16.21;100.00;100688.28;4973588;28;20050;-68
2023/09/01 07:35:28;;;;;;;6.03;2.97;;;;;;;16.39;100.00;100683.16;4974215;28;20098;-65
2023/09/01 07:37:57;;;;;;;6.68;3.10;;;;;;;16.67;100.00;100689.38;4974735;28;20143;-66
2023/09/01 07:40:24;;;;;;;11.73;2.92;;;;;;;16.90;100.00;100680.94;4975160;28;20051;-64
2023/09/01 07:42:52;;;;;;;5.97;2.55;;;;;;;17.12;100.00;100686.22;4974035;28;20050;-64
2023/09/01 07:45:19;;;;;;;12.05;3.25;;;;;;;17.70;100.00;100691.16;4974759;28;20047;-63
2023/09/01 07:47:45;;;;;;;7.55;3.47;;;;;;;18.25;98.70;100689.91;4974097;28;20093;-63
2023/09/01 07:50:35;;;;;;;7.93;2.70;;;;;;;18.59;89.37;100690.66;4973151;28;20051;-63
2023/09/01 07:53:02;;;;;;;6.60;2.80;;;;;;;18.66;87.84;100691.47;4973842;28;20062;-63
2023/09/01 07:55:29;;;;;;;9.65;3.08;;;;;;;18.89;84.87;100685.50;4973875;28;20522;-64
2023/09/01 07:57:55;;;;;;;5.85;2.67;;;;;;;19.49;83.22;100682.47;4973297;28;20054;-62
2023/09/01 08:00:22;;;;;;;7.85;2.53;;;;;;;19.31;81.70;100680.50;4974166;28;20109;-64
2023/09/01 08:02:49;;;;;;;6.63;2.63;;;;;;;19.87;78.28;100682.41;4973321;28;20131;-63
2023/09/01 08:05:17;;;;;;;5.47;2.72;;;;;;;19.76;76.22;100683.13;4973674;28;20384;-65
2023/09/01 08:07:46;;;;;;;9.77;2.80;;;;;;;20.03;75.59;100685.63;4972665;28;20487;-63
2023/09/01 08:10:13;;;;;;;9.38;3.03;;;;;;;20.86;68.71;100680.53;4974057;28;20070;-63
2023/09/01 08:12:40;;;;;;;6.07;2.88;;;;;;;20.96;66.95;100690.88;4973787;28;20061;-64
2023/09/01 08:15:10;;;;;;;5.82;2.50;;;;;;;20.97;65.12;100684.38;4974815;28;20050;-64
2023/09/01 08:17:37;;;;;;;7.95;2.30;;;;;;;21.47;64.24;100689.56;4973413;28;20051;-64
2023/09/01 08:20:04;;;;;;;6.55;2.60;;;;;;;21.34;63.39;100695.22;4974380;28;20049;-65
2023/09/01 08:22:31;;;;;;;7.90;2.42;;;;;;;21.99;59.59;100684.34;4956723;28;20109;-64
2023/09/01 08:24:58;;;;;;;8.75;2.70;;;;;;;21.93;58.13;100688.00;4972280;28;20139;-64
2023/09/01 08:27:27;;;;;;;5.50;2.58;;;;;;;22.54;56.50;100688.59;4972464;28;20042;-66
2023/09/01 08:29:54;;;;;;;8.75;2.60;;;;;;;22.25;56.17;100683.00;4974041;28;20054;-65
2023/09/01 08:32:21;;;;;;;5.40;2.38;;;;;;;22.29;54.94;100686.94;4973677;28;20090;-65
2023/09/01 08:34:47;;;;;;;8.55;2.55;;;;;;;21.72;57.23;100694.84;4973120;28;20046;-63
2023/09/01 08:37:15;;;;;;;7.00;2.55;;;;;;;21.75;56.49;100690.81;4972809;28;20447;-64
2023/09/01 08:39:42;;;;;;;10.68;3.30;;;;;;;21.97;56.27;100694.66;4972926;28;20054;-65
2023/09/01 08:42:09;;;;;;;7.57;2.55;;;;;;;22.10;55.37;100690.88;4973755;28;20462;-66
2023/09/01 08:44:39;;;;;;;12.32;3.08;;;;;;;22.06;53.90;100695.97;4973004;28;20057;-65
2023/09/01 08:47:08;;;;;;;6.57;2.40;;;;;;;22.25;54.56;100687.66;4972362;28;20076;-65
2023/09/01 08:49:35;;;;;;;7.97;2.67;;;;;;;22.64;53.04;100691.56;4973067;28;20491;-65
2023/09/01 08:52:03;;;;;;;8.43;2.70;;;;;;;23.21;52.67;100691.63;4973328;28;20515;-65
2023/09/01 08:54:30;;;;;;;6.03;2.45;;;;;;;23.55;49.58;100701.81;4973103;28;20062;-66
2023/09/01 08:56:57;;;;;;;6.80;2.25;;;;;;;23.02;50.40;100709.28;4972743;28;20287;-67
2023/09/01 08:59:28;;;;;;;12.68;2.20;;;;;;;23.65;49.80;100701.97;4955198;28;20047;-67
2023/09/01 09:01:55;;;;;;;12.80;5.40;;;;;;;24.58;46.77;100705.09;4972774;28;20502;-66
2023/09/01 09:04:22;;;;;;;7.82;2.53;;;;;;;24.39;46.93;100707.28;4973833;28;20042;-65
2023/09/01 09:06:48;;;;;;;9.73;2.42;;;;;;;24.28;46.05;100706.28;4973104;28;20057;-67
2023/09/01 09:09:15;;;;;;;6.60;2.50;;;;;;;24.28;46.92;100697.25;4971868;28;20046;-66
2023/09/01 09:11:56;;;;;;;8.98;2.63;;;;;;;24.21;45.32;100692.75;4972097;28;20736;-67
2023/09/01 09:14:24;;;;;;;7.00;2.47;;;;;;;24.42;44.56;100698.56;4972501;28;20049;-66
2023/09/01 09:16:55;;;;;;;5.88;2.40;;;;;;;24.12;45.03;100699.75;4973787;28;20097;-66
2023/09/01 09:19:24;;;;;;;6.20;2.10;;;;;;;24.65;44.05;100690.09;4973017;28;20051;-65
2023/09/01 09:22:05;;;;;;;8.07;2.75;;;;;;;25.65;42.05;100702.72;4973177;28;20046;-65
2023/09/01 09:24:36;;;;;;;6.15;2.40;;;;;;;25.98;40.36;100688.72;4972697;28;20069;-66
2023/09/01 09:27:05;;;;;;;7.13;1.90;;;;;;;25.79;39.71;100693.81;4955764;28;20043;-65
2023/09/01 09:29:40;;;;;;;8.77;2.17;;;;;;;26.80;38.32;100694.72;4973512;28;20069;-65
2023/09/01 09:32:21;;;;;;;7.72;2.25;;;;;;;27.08;37.41;100703.63;4972031;28;20054;-65
2023/09/01 09:35:11;;;;;;;8.15;1.80;;;;;;;27.30;36.28;100695.94;4972869;28;20488;-65
2023/09/01 09:37:39;;;;;;;5.85;1.73;;;;;;;26.83;36.32;100702.44;4972290;28;20499;-66
2023/09/01 09:40:16;;;;;;;8.73;1.85;;;;;;;26.46;36.52;100702.53;4972659;28;20047;-65
2023/09/01 09:42:44;;;;;;;7.18;2.03;;;;;;;27.36;35.82;100703.16;4972852;28;20062;-66
2023/09/01 09:45:24;;;;;;;6.45;1.90;;;;;;;28.24;34.60;100701.22;4973171;28;20365;-64
2023/09/01 09:47:51;;;;;;;10.25;2.38;;;;;;;27.57;34.74;100701.25;4973304;28;20093;-64
2023/09/01 09:50:18;;;;;;;7.97;2.17;;;;;;;28.75;33.98;100698.31;4972122;28;20081;-67
2023/09/01 09:52:49;;;;;;;7.85;2.03;;;;;;;28.57;33.29;100706.13;4972440;28;20105;-65
2023/09/01 09:55:24;;;;;;;15.45;3.35;;;;;;;29.51;33.49;100711.75;4973094;28;20105;-66
2023/09/01 09:57:54;;;;;;;7.50;2.38;;;;;;;30.21;32.38;100708.66;4973847;28;20440;-66
2023/09/01 10:00:21;;;;;;;6.40;1.85;;;;;;;30.81;29.72;100710.19;4973546;28;20447;-65
2023/09/01 10:02:55;;;;;;;5.82;1.70;;;;;;;29.21;30.87;100709.97;4973859;28;20112;-66
2023/09/01 10:05:23;;;;;;;4.28;1.63;;;;;;;27.99;32.56;100708.44;4974542;28;20487;-66
2023/09/01 10:07:51;;;;;;;8.75;1.88;;;;;;;27.78;33.53;100710.34;4974319;28;20463;-65
2023/09/01 10:10:18;;;;;;;4.47;1.85;;;;;;;28.15;33.13;100712.84;4973537;28;20070;-68
2023/09/01 10:12:44;;;;;;;4.28;1.55;;;;;;;26.67;34.90;100711.69;4973788;28;20051;-66
2023/09/01 10:15:15;;;;;;;5.78;1.77;;;;;;;26.26;36.13;100716.97;4974959;28;20121;-65
2023/09/01 10:17:43;;;;;;;6.50;2.03;;;;;;;27.34;34.89;100708.09;4975447;28;20117;-68
2023/09/01 10:20:12;;;;;;;4.90;1.70;;;;;;;27.71;33.98;100713.38;4974978;28;20050;-67
2023/09/01 10:22:38;;;;;;;4.53;1.77;;;;;;;26.64;34.85;100714.97;4974181;28;20083;-66
2023/09/01 10:25:13;;;;;;;10.23;2.28;;;;;;;25.65;36.52;100724.72;4975714;28;20074;-67
2023/09/01 10:28:13;;;;;;;8.98;2.42;;;;;;;24.88;37.55;100719.19;4975998;28;20079;-64
2023/09/01 10:30:41;;;;;;;5.25;1.90;;;;;;;24.46;38.96;100713.41;4975665;28;20074;-66
2023/09/01 10:33:15;;;;;;;7.03;2.20;;;;;;;23.85;39.86;100706.97;4976657;28;20046;-66
2023/09/01 10:35:50;;;;;;;4.50;1.83;;;;;;;24.38;39.63;100713.84;4976921;28;20055;-65
2023/09/01 10:38:22;;;;;;;6.07;2.03;;;;;;;24.18;39.41;100717.94;4976153;28;20051;-67
2023/09/01 10:40:52;;;;;;;5.95;1.70;;;;;;;24.13;38.89;100717.88;4957138;28;20050;-65
2023/09/01 10:43:31;;;;;;;6.20;2.08;;;;;;;23.93;39.56;100725.75;4958655;28;20555;-65
2023/09/01 10:46:14;;;;;;;9.27;2.13;;;;;;;24.16;39.46;100725.59;4957818;28;20058;-66
2023/09/01 10:48:57;;;;;;;5.50;1.92;;;;;;;23.17;41.20;100717.81;4958738;28;20057;-66
2023/09/01 10:51:33;;;;;;;6.32;2.58;;;;;;;23.73;40.93;100713.34;4958380;28;20114;-67
2023/09/01 10:54:21;;;;;;;5.13;1.90;;;;;;;23.14;41.16;100706.53;4971542;28;20047;-68
2023/09/01 10:56:58;;;;;;;6.50;1.83;;;;;;;22.37;42.67;100710.34;4974597;28;20085;-69
2023/09/01 10:59:28;;;;;;;5.90;2.00;;;;;;;22.73;42.84;100711.97;4958799;28;20046;-69
2023/09/01 11:02:22;;;;;;;8.45;2.22;;;;;;;21.71;43.80;100715.03;4975714;28;20046;-69
2023/09/01 11:05:08;;;;;;;10.15;2.15;;;;;;;22.11;43.56;100711.66;4975726;28;20118;-69
2023/09/01 11:08:18;;;;;;;;;;;;;;;;;;;;;
2023/09/01 11:11:07;;;;;;;11.15;2.15;;;;;;;21.68;44.44;100720.94;4975575;28;20047;-68
2023/09/01 11:13:55;;;;;;;6.15;2.47;;;;;;;21.62;45.76;100719.97;4975195;28;20101;-68
2023/09/01 11:16:22;;;;;;;7.00;2.42;;;;;;;21.41;45.33;100716.97;4975728;28;20058;-68
2023/09/01 11:19:04;;;;;;;7.30;2.25;;;;;;;20.74;47.31;100717.81;4975687;28;20051;-68
2023/09/01 11:21:31;;;;;;;5.70;2.28;;;;;;;20.39;48.73;100718.38;4975685;28;20046;-68
2023/09/01 11:24:00;;;;;;;6.57;3.10;;;;;;;20.39;48.63;100710.19;4975574;28;20054;-68